KFHR

Friday Harbor Airport

Friday Harbor, Washington, USA
METAR KFHR 191453Z AUTO 14014G22KT 10SM BKN016 06/03 A2978 RMK AO2 SLP083 T00610033 51003
Observed Flight Rules
Jan-19 @ 14:53 UTC (32 minutes ago) Marginal Visual Flight Rules
Wind Visibility Clouds
140° at 14 knots
 Gusting to 22 knots
10 miles
  • Broken at 1,600' AGL
Temperatures Readings
Current 6°C / 43°F
Dewpoint 3°C / 37°F
Humidity 81%
Altimeter 29.78" Hg
Pressure 1008.3 hPa
Elevation 32
METAR KFHR 191453Z AUTO 14014G22KT 10SM BKN016 06/03 A2978 RMK AO2 SLP083 T00610033 51003
Observed Flight Rules
Jan-19 @ 14:53 UTC
(32 minutes ago)
MVFR
Wind Visibility
140° at 14 knots
 Gusting to 22 knots
10 miles
Clouds
  • Broken at 1,600' AGL
Temperature Dewpoint
6°C / 43°F 3°C / 37°F
Humidity Altimeter Pressure
81% 29.78" Hg 1008.3 hPa